Quincy, WA

1:41 AM PDT on August 03, 2015 (GMT -0700)
NWS Spotter #62 | | Change Station
CLOSE
Current Station
Personal Weather Station
Location: Quincy, WA
Elevation: 1297 ft
Nearby Weather Stations
Active Advisory: Fire Weather Watch Active Notice: Record Report

Elev 1297 ft 47.23 °N, 119.86 °W | Updated 6 seconds ago

Mostly Cloudy
Mostly Cloudy
81.5 °F
Feels Like 80 °F
N
3.6
Wind Variable Wind from WNW
Gusts 4.9 mph

Today
High -- | Low -- °F
--% Chance of Precip.
Yesterday
High -- | Low -- °F
Precip. -- in
5:40 AM 8:29 PM
Waning Gibbous, 88% visible
Pressure 29.70 in
Visibility 10.0 miles
Clouds Few 3500 ft
Heat Index 80 °F
Dew Point 45 °F
Humidity 28%
Rainfall 0.00 in
Snow Depth Not available.
UV 0.0 out of 12
Pollen 5.80 out of 12
Air Quality Not available.
Flu Activity Not available.
METAR KEPH 030753Z AUTO 28009KT 10SM FEW035 29/06 A2974 RMK AO2 SLP057 T02940056 403780211

More Conditions Fewer Conditions

Pressure 29.70 in
Visibility 10.0 miles
Clouds Few 3500 ft
Heat Index 80 °F
Dew Point 45 °F
Humidity 28%
Rainfall 0.00 in
Snow Depth Not available.
UV 0.0 out of 12
Pollen 5.80 out of 12
Air Quality Not available.
Flu Activity Not available.
METAR KEPH 030753Z AUTO 28009KT 10SM FEW035 29/06 A2974 RMK AO2 SLP057 T02940056 403780211

More Conditions Fewer Conditions

10-Day Weather Forecast

×

Almanac

Astronomy

Aug. 03, 2015 Rise Set
Actual Time
Civil Twilight
Nautical Twilight
Astronomical Twilight
Moon
Length of Visible Light
Length of Day
Tomorrow will be .
, % of the Moon is Illuminated

Today's Extremes

State Highs State Lows

Community

WunderPhotos

Upload Photos

1,843,592 photos uploaded!

WunderBlogs® & News

Nearby

Air Quality

  Air Quality AQ Index Pollutant
Not available.

Snow Depth

Station Depth Elevation

Earthquake Activity

City Distance Mag. Time & Date
Minimum magnitude displayed is 2.5.

Coastal Water Temperatures

Place Temperature

Stations

Nearby Weather Stations

Station Location Temp. Windchill Dew Point Humidity Wind Precip. Elev Updated Type
                   
Fire Weather Watch
Statement as of 8:51 PM PDT on August 02, 2015

... Fire Weather Watch remains in effect from Monday afternoon
through Tuesday evening for gusty winds and low humidity for fire
weather zone 675...

* affected area... in waz675... fire weather zone 675.

* Timing... winds will increase Monday afternoon and continue
into Tuesday evening.

* Wind... northwest 10 to 20 mph with gusts to 25 mph. Strongest
winds will be in the afternoons and evenings.

* Humidity... 10 to 22 percent.

* Impacts... any fires that develop or that is existing will
likely spread rapidly. Outdoor burning is not recommended.

Precautionary/preparedness actions...

A Fire Weather Watch means that critical fire weather conditions
are forecast to occur. Listen for later forecasts and possible
red flag warnings.